sensor_id;sensor_type;location;lat;lon;timestamp;P1;durP1;ratioP1;P2;durP2;ratioP2
61413;SDS011;47279;52.426;10.488;2023-01-24T00:02:23;7.72;;;6.93;;
61413;SDS011;47279;52.426;10.488;2023-01-24T00:04:49;6.47;;;5.60;;
61413;SDS011;47279;52.426;10.488;2023-01-24T00:07:15;7.00;;;5.72;;
61413;SDS011;47279;52.426;10.488;2023-01-24T00:09:41;6.60;;;5.90;;
61413;SDS011;47279;52.426;10.488;2023-01-24T00:12:07;6.20;;;5.60;;
61413;SDS011;47279;52.426;10.488;2023-01-24T00:14:33;6.65;;;5.85;;
61413;SDS011;47279;52.426;10.488;2023-01-24T00:16:59;6.63;;;5.97;;
61413;SDS011;47279;52.426;10.488;2023-01-24T00:19:25;7.20;;;5.85;;
61413;SDS011;47279;52.426;10.488;2023-01-24T00:21:51;7.28;;;6.50;;
61413;SDS011;47279;52.426;10.488;2023-01-24T00:24:17;6.22;;;5.63;;
61413;SDS011;47279;52.426;10.488;2023-01-24T00:26:43;6.88;;;5.60;;
61413;SDS011;47279;52.426;10.488;2023-01-24T00:29:09;6.90;;;5.80;;
61413;SDS011;47279;52.426;10.488;2023-01-24T00:31:35;6.90;;;5.78;;
61413;SDS011;47279;52.426;10.488;2023-01-24T00:34:01;6.68;;;5.95;;
61413;SDS011;47279;52.426;10.488;2023-01-24T00:36:27;6.45;;;5.60;;
61413;SDS011;47279;52.426;10.488;2023-01-24T00:38:53;6.00;;;5.40;;
61413;SDS011;47279;52.426;10.488;2023-01-24T00:41:19;6.25;;;5.65;;
61413;SDS011;47279;52.426;10.488;2023-01-24T00:43:46;6.20;;;5.60;;
61413;SDS011;47279;52.426;10.488;2023-01-24T00:46:11;6.85;;;5.78;;
61413;SDS011;47279;52.426;10.488;2023-01-24T00:48:37;6.60;;;5.60;;
61413;SDS011;47279;52.426;10.488;2023-01-24T00:51:03;6.38;;;5.75;;
61413;SDS011;47279;52.426;10.488;2023-01-24T00:53:30;6.40;;;5.80;;
61413;SDS011;47279;52.426;10.488;2023-01-24T00:55:56;6.40;;;5.78;;
61413;SDS011;47279;52.426;10.488;2023-01-24T00:58:22;5.90;;;5.40;;
61413;SDS011;47279;52.426;10.488;2023-01-24T01:00:48;6.75;;;5.90;;
61413;SDS011;47279;52.426;10.488;2023-01-24T01:03:15;6.22;;;5.63;;
61413;SDS011;47279;52.426;10.488;2023-01-24T01:05:41;5.90;;;5.30;;
61413;SDS011;47279;52.426;10.488;2023-01-24T01:08:07;6.63;;;5.88;;
61413;SDS011;47279;52.426;10.488;2023-01-24T01:10:33;6.43;;;5.78;;
61413;SDS011;47279;52.426;10.488;2023-01-24T01:12:59;6.18;;;5.57;;
61413;SDS011;47279;52.426;10.488;2023-01-24T01:15:25;5.63;;;5.07;;
61413;SDS011;47279;52.426;10.488;2023-01-24T01:17:51;5.82;;;5.25;;
61413;SDS011;47279;52.426;10.488;2023-01-24T01:20:17;6.22;;;5.40;;
61413;SDS011;47279;52.426;10.488;2023-01-24T01:22:43;6.45;;;5.85;;
61413;SDS011;47279;52.426;10.488;2023-01-24T01:25:09;6.30;;;5.63;;
61413;SDS011;47279;52.426;10.488;2023-01-24T01:27:35;6.45;;;5.55;;
61413;SDS011;47279;52.426;10.488;2023-01-24T01:30:01;5.78;;;5.18;;
61413;SDS011;47279;52.426;10.488;2023-01-24T01:32:28;6.88;;;5.53;;
61413;SDS011;47279;52.426;10.488;2023-01-24T01:34:54;5.47;;;4.97;;
61413;SDS011;47279;52.426;10.488;2023-01-24T01:37:19;6.05;;;5.45;;
61413;SDS011;47279;52.426;10.488;2023-01-24T01:39:45;6.20;;;5.10;;
61413;SDS011;47279;52.426;10.488;2023-01-24T01:42:11;5.40;;;4.90;;
61413;SDS011;47279;52.426;10.488;2023-01-24T01:44:39;5.97;;;5.38;;
61413;SDS011;47279;52.426;10.488;2023-01-24T01:47:23;5.65;;;5.00;;
61413;SDS011;47279;52.426;10.488;2023-01-24T01:49:55;5.47;;;4.97;;
61413;SDS011;47279;52.426;10.488;2023-01-24T01:52:23;6.15;;;5.43;;
61413;SDS011;47279;52.426;10.488;2023-01-24T01:54:50;6.22;;;5.63;;
61413;SDS011;47279;52.426;10.488;2023-01-24T01:57:19;5.50;;;5.00;;
61413;SDS011;47279;52.426;10.488;2023-01-24T01:59:50;6.10;;;5.50;;
61413;SDS011;47279;52.426;10.488;2023-01-24T02:02:16;5.55;;;5.05;;
61413;SDS011;47279;52.426;10.488;2023-01-24T02:04:45;5.85;;;5.25;;
61413;SDS011;47279;52.426;10.488;2023-01-24T02:09:56;5.93;;;5.20;;
61413;SDS011;47279;52.426;10.488;2023-01-24T02:12:30;5.63;;;5.13;;
61413;SDS011;47279;52.426;10.488;2023-01-24T02:14:57;6.00;;;5.43;;
61413;SDS011;47279;52.426;10.488;2023-01-24T02:17:43;5.80;;;5.20;;
61413;SDS011;47279;52.426;10.488;2023-01-24T02:20:21;5.55;;;4.95;;
61413;SDS011;47279;52.426;10.488;2023-01-24T02:22:56;5.72;;;5.13;;
61413;SDS011;47279;52.426;10.488;2023-01-24T02:27:53;5.03;;;4.45;;
61413;SDS011;47279;52.426;10.488;2023-01-24T02:30:20;5.75;;;5.18;;
61413;SDS011;47279;52.426;10.488;2023-01-24T02:32:46;6.03;;;5.28;;
61413;SDS011;47279;52.426;10.488;2023-01-24T02:35:26;5.78;;;5.28;;
61413;SDS011;47279;52.426;10.488;2023-01-24T02:37:52;5.55;;;5.05;;
61413;SDS011;47279;52.426;10.488;2023-01-24T02:40:19;5.43;;;4.93;;
61413;SDS011;47279;52.426;10.488;2023-01-24T02:42:45;6.07;;;5.47;;
61413;SDS011;47279;52.426;10.488;2023-01-24T02:45:17;5.53;;;4.93;;
61413;SDS011;47279;52.426;10.488;2023-01-24T02:47:45;5.30;;;4.80;;
61413;SDS011;47279;52.426;10.488;2023-01-24T02:50:12;5.85;;;5.25;;
61413;SDS011;47279;52.426;10.488;2023-01-24T02:52:38;5.43;;;4.93;;
61413;SDS011;47279;52.426;10.488;2023-01-24T02:55:23;5.45;;;4.95;;
61413;SDS011;47279;52.426;10.488;2023-01-24T02:57:49;5.63;;;5.13;;
61413;SDS011;47279;52.426;10.488;2023-01-24T03:00:31;5.45;;;4.80;;
61413;SDS011;47279;52.426;10.488;2023-01-24T03:02:57;5.25;;;4.75;;
61413;SDS011;47279;52.426;10.488;2023-01-24T03:05:23;5.45;;;4.82;;
61413;SDS011;47279;52.426;10.488;2023-01-24T03:07:49;5.32;;;4.80;;
61413;SDS011;47279;52.426;10.488;2023-01-24T03:10:16;5.03;;;4.45;;
61413;SDS011;47279;52.426;10.488;2023-01-24T03:12:42;5.13;;;4.63;;
61413;SDS011;47279;52.426;10.488;2023-01-24T03:15:28;5.60;;;5.05;;
61413;SDS011;47279;52.426;10.488;2023-01-24T03:18:12;4.78;;;4.38;;
61413;SDS011;47279;52.426;10.488;2023-01-24T03:20:57;4.90;;;4.40;;
61413;SDS011;47279;52.426;10.488;2023-01-24T03:23:41;5.30;;;4.80;;
61413;SDS011;47279;52.426;10.488;2023-01-24T03:26:26;5.07;;;4.57;;
61413;SDS011;47279;52.426;10.488;2023-01-24T03:29:11;4.65;;;4.13;;
61413;SDS011;47279;52.426;10.488;2023-01-24T03:31:55;5.25;;;4.53;;
61413;SDS011;47279;52.426;10.488;2023-01-24T03:34:40;5.10;;;4.60;;
61413;SDS011;47279;52.426;10.488;2023-01-24T03:37:18;5.03;;;4.60;;
61413;SDS011;47279;52.426;10.488;2023-01-24T03:40:04;4.25;;;3.85;;
61413;SDS011;47279;52.426;10.488;2023-01-24T03:42:31;5.38;;;4.85;;
61413;SDS011;47279;52.426;10.488;2023-01-24T03:44:57;4.70;;;4.30;;
61413;SDS011;47279;52.426;10.488;2023-01-24T03:47:23;5.50;;;5.00;;
61413;SDS011;47279;52.426;10.488;2023-01-24T03:49:49;5.05;;;4.28;;
61413;SDS011;47279;52.426;10.488;2023-01-24T03:52:33;4.72;;;4.28;;
61413;SDS011;47279;52.426;10.488;2023-01-24T03:54:59;5.05;;;4.55;;
61413;SDS011;47279;52.426;10.488;2023-01-24T03:57:26;5.13;;;4.68;;
61413;SDS011;47279;52.426;10.488;2023-01-24T03:59:52;5.15;;;4.47;;
61413;SDS011;47279;52.426;10.488;2023-01-24T04:02:18;5.20;;;4.70;;
61413;SDS011;47279;52.426;10.488;2023-01-24T04:04:45;5.03;;;4.43;;
61413;SDS011;47279;52.426;10.488;2023-01-24T04:07:29;5.03;;;4.53;;
61413;SDS011;47279;52.426;10.488;2023-01-24T04:09:55;4.45;;;4.05;;
61413;SDS011;47279;52.426;10.488;2023-01-24T04:12:23;4.40;;;4.00;;
61413;SDS011;47279;52.426;10.488;2023-01-24T04:14:49;4.90;;;4.40;;
61413;SDS011;47279;52.426;10.488;2023-01-24T04:17:15;4.38;;;3.92;;
61413;SDS011;47279;52.426;10.488;2023-01-24T04:19:41;4.82;;;4.32;;
61413;SDS011;47279;52.426;10.488;2023-01-24T04:22:07;4.65;;;4.25;;
61413;SDS011;47279;52.426;10.488;2023-01-24T04:24:33;4.60;;;4.20;;
61413;SDS011;47279;52.426;10.488;2023-01-24T04:26:59;4.65;;;4.18;;
61413;SDS011;47279;52.426;10.488;2023-01-24T04:29:25;4.25;;;3.85;;
61413;SDS011;47279;52.426;10.488;2023-01-24T04:31:51;4.38;;;3.95;;
61413;SDS011;47279;52.426;10.488;2023-01-24T04:34:17;4.45;;;4.05;;
61413;SDS011;47279;52.426;10.488;2023-01-24T04:36:43;4.05;;;3.65;;
61413;SDS011;47279;52.426;10.488;2023-01-24T04:39:09;4.30;;;3.90;;
61413;SDS011;47279;52.426;10.488;2023-01-24T04:41:35;4.13;;;3.72;;
61413;SDS011;47279;52.426;10.488;2023-01-24T04:44:01;4.43;;;4.03;;
61413;SDS011;47279;52.426;10.488;2023-01-24T04:46:27;4.20;;;3.80;;
61413;SDS011;47279;52.426;10.488;2023-01-24T04:48:53;4.10;;;3.70;;
61413;SDS011;47279;52.426;10.488;2023-01-24T04:51:19;3.55;;;3.25;;
61413;SDS011;47279;52.426;10.488;2023-01-24T04:53:45;3.88;;;3.47;;
61413;SDS011;47279;52.426;10.488;2023-01-24T04:56:11;3.90;;;3.50;;
61413;SDS011;47279;52.426;10.488;2023-01-24T04:58:37;4.03;;;3.63;;
61413;SDS011;47279;52.426;10.488;2023-01-24T05:01:03;4.40;;;4.00;;
61413;SDS011;47279;52.426;10.488;2023-01-24T05:03:30;3.92;;;3.63;;
61413;SDS011;47279;52.426;10.488;2023-01-24T05:05:56;3.90;;;3.50;;
61413;SDS011;47279;52.426;10.488;2023-01-24T05:08:22;3.40;;;3.10;;
61413;SDS011;47279;52.426;10.488;2023-01-24T05:10:48;3.78;;;3.30;;
61413;SDS011;47279;52.426;10.488;2023-01-24T05:13:14;3.60;;;3.30;;
61413;SDS011;47279;52.426;10.488;2023-01-24T05:15:49;3.40;;;3.10;;
61413;SDS011;47279;52.426;10.488;2023-01-24T05:18:16;3.55;;;3.25;;
61413;SDS011;47279;52.426;10.488;2023-01-24T05:20:42;3.78;;;3.42;;
61413;SDS011;47279;52.426;10.488;2023-01-24T05:23:08;3.67;;;3.20;;
61413;SDS011;47279;52.426;10.488;2023-01-24T05:25:34;3.58;;;3.28;;
61413;SDS011;47279;52.426;10.488;2023-01-24T05:28:00;3.53;;;3.22;;
61413;SDS011;47279;52.426;10.488;2023-01-24T05:30:27;3.70;;;3.30;;
61413;SDS011;47279;52.426;10.488;2023-01-24T05:32:57;3.55;;;3.13;;
61413;SDS011;47279;52.426;10.488;2023-01-24T05:35:24;3.13;;;2.78;;
61413;SDS011;47279;52.426;10.488;2023-01-24T05:37:51;3.70;;;3.40;;
61413;SDS011;47279;52.426;10.488;2023-01-24T05:40:17;3.05;;;2.75;;
61413;SDS011;47279;52.426;10.488;2023-01-24T05:42:43;3.40;;;3.10;;
61413;SDS011;47279;52.426;10.488;2023-01-24T05:45:09;3.50;;;3.17;;
61413;SDS011;47279;52.426;10.488;2023-01-24T05:47:35;3.55;;;3.25;;
61413;SDS011;47279;52.426;10.488;2023-01-24T05:50:02;3.42;;;3.13;;
61413;SDS011;47279;52.426;10.488;2023-01-24T05:52:28;3.30;;;3.00;;
61413;SDS011;47279;52.426;10.488;2023-01-24T05:54:54;3.28;;;2.97;;
61413;SDS011;47279;52.426;10.488;2023-01-24T05:57:20;3.03;;;2.83;;
61413;SDS011;47279;52.426;10.488;2023-01-24T05:59:46;3.22;;;2.92;;
61413;SDS011;47279;52.426;10.488;2023-01-24T06:02:12;2.83;;;2.63;;
61413;SDS011;47279;52.426;10.488;2023-01-24T06:04:38;3.08;;;2.63;;
61413;SDS011;47279;52.426;10.488;2023-01-24T06:07:04;3.33;;;3.03;;
61413;SDS011;47279;52.426;10.488;2023-01-24T06:09:30;3.10;;;2.80;;
61413;SDS011;47279;52.426;10.488;2023-01-24T06:11:56;3.00;;;2.70;;
61413;SDS011;47279;52.426;10.488;2023-01-24T06:14:22;2.80;;;2.60;;
61413;SDS011;47279;52.426;10.488;2023-01-24T06:16:48;3.00;;;2.70;;
61413;SDS011;47279;52.426;10.488;2023-01-24T06:19:14;3.60;;;2.72;;
61413;SDS011;47279;52.426;10.488;2023-01-24T06:21:42;2.90;;;2.58;;
61413;SDS011;47279;52.426;10.488;2023-01-24T06:24:19;2.90;;;2.60;;
61413;SDS011;47279;52.426;10.488;2023-01-24T06:26:45;3.22;;;2.90;;
61413;SDS011;47279;52.426;10.488;2023-01-24T06:29:12;3.50;;;2.60;;
61413;SDS011;47279;52.426;10.488;2023-01-24T06:31:51;3.45;;;2.72;;
61413;SDS011;47279;52.426;10.488;2023-01-24T06:39:55;2.83;;;2.30;;
61413;SDS011;47279;52.426;10.488;2023-01-24T06:42:22;2.95;;;2.65;;
61413;SDS011;47279;52.426;10.488;2023-01-24T06:44:48;2.88;;;2.63;;
61413;SDS011;47279;52.426;10.488;2023-01-24T06:47:14;2.58;;;2.38;;
61413;SDS011;47279;52.426;10.488;2023-01-24T06:49:42;2.90;;;2.60;;
61413;SDS011;47279;52.426;10.488;2023-01-24T06:52:08;3.10;;;2.80;;
61413;SDS011;47279;52.426;10.488;2023-01-24T06:54:35;3.25;;;2.45;;
61413;SDS011;47279;52.426;10.488;2023-01-24T06:57:01;3.05;;;2.78;;
61413;SDS011;47279;52.426;10.488;2023-01-24T06:59:28;2.72;;;2.53;;
61413;SDS011;47279;52.426;10.488;2023-01-24T07:01:54;2.50;;;2.20;;
61413;SDS011;47279;52.426;10.488;2023-01-24T07:04:20;3.03;;;2.55;;
61413;SDS011;47279;52.426;10.488;2023-01-24T07:06:46;2.65;;;2.45;;
61413;SDS011;47279;52.426;10.488;2023-01-24T07:09:17;2.55;;;2.35;;
61413;SDS011;47279;52.426;10.488;2023-01-24T07:11:43;2.50;;;2.30;;
61413;SDS011;47279;52.426;10.488;2023-01-24T07:14:09;2.63;;;2.42;;
61413;SDS011;47279;52.426;10.488;2023-01-24T07:16:35;2.83;;;2.60;;
61413;SDS011;47279;52.426;10.488;2023-01-24T07:19:01;2.92;;;2.50;;
61413;SDS011;47279;52.426;10.488;2023-01-24T07:21:27;2.60;;;2.40;;
61413;SDS011;47279;52.426;10.488;2023-01-24T07:23:53;2.42;;;2.22;;
61413;SDS011;47279;52.426;10.488;2023-01-24T07:26:21;2.72;;;2.53;;
61413;SDS011;47279;52.426;10.488;2023-01-24T07:28:47;3.15;;;2.50;;
61413;SDS011;47279;52.426;10.488;2023-01-24T07:31:13;2.97;;;2.47;;
61413;SDS011;47279;52.426;10.488;2023-01-24T07:33:40;2.78;;;2.40;;
61413;SDS011;47279;52.426;10.488;2023-01-24T07:36:15;2.63;;;2.40;;
61413;SDS011;47279;52.426;10.488;2023-01-24T07:38:41;3.17;;;2.85;;
61413;SDS011;47279;52.426;10.488;2023-01-24T07:41:07;2.75;;;2.50;;
61413;SDS011;47279;52.426;10.488;2023-01-24T07:43:33;3.28;;;2.95;;
61413;SDS011;47279;52.426;10.488;2023-01-24T07:45:59;2.50;;;2.30;;
61413;SDS011;47279;52.426;10.488;2023-01-24T07:48:25;2.72;;;2.40;;
61413;SDS011;47279;52.426;10.488;2023-01-24T07:50:51;2.92;;;2.53;;
61413;SDS011;47279;52.426;10.488;2023-01-24T07:53:17;2.80;;;2.60;;
61413;SDS011;47279;52.426;10.488;2023-01-24T07:55:43;2.72;;;2.53;;
61413;SDS011;47279;52.426;10.488;2023-01-24T07:58:09;2.83;;;2.53;;
61413;SDS011;47279;52.426;10.488;2023-01-24T08:00:35;2.78;;;2.45;;
61413;SDS011;47279;52.426;10.488;2023-01-24T08:03:01;2.35;;;2.15;;
61413;SDS011;47279;52.426;10.488;2023-01-24T08:05:27;2.65;;;2.40;;
61413;SDS011;47279;52.426;10.488;2023-01-24T08:07:53;2.95;;;2.63;;
61413;SDS011;47279;52.426;10.488;2023-01-24T08:10:20;3.05;;;2.75;;
61413;SDS011;47279;52.426;10.488;2023-01-24T08:12:46;3.42;;;2.80;;
61413;SDS011;47279;52.426;10.488;2023-01-24T08:15:12;3.15;;;2.80;;
61413;SDS011;47279;52.426;10.488;2023-01-24T08:17:38;2.70;;;2.50;;
61413;SDS011;47279;52.426;10.488;2023-01-24T08:20:05;2.28;;;2.08;;
61413;SDS011;47279;52.426;10.488;2023-01-24T08:22:31;2.60;;;2.40;;
61413;SDS011;47279;52.426;10.488;2023-01-24T08:24:57;3.10;;;2.30;;
61413;SDS011;47279;52.426;10.488;2023-01-24T08:27:23;2.70;;;2.50;;
61413;SDS011;47279;52.426;10.488;2023-01-24T08:29:49;3.00;;;2.50;;
61413;SDS011;47279;52.426;10.488;2023-01-24T08:32:15;2.70;;;2.50;;
61413;SDS011;47279;52.426;10.488;2023-01-24T08:34:41;2.50;;;2.30;;
61413;SDS011;47279;52.426;10.488;2023-01-24T08:37:07;2.65;;;2.45;;
61413;SDS011;47279;52.426;10.488;2023-01-24T08:39:32;2.92;;;2.63;;
61413;SDS011;47279;52.426;10.488;2023-01-24T08:41:58;2.50;;;2.30;;
61413;SDS011;47279;52.426;10.488;2023-01-24T08:44:24;2.72;;;2.40;;
61413;SDS011;47279;52.426;10.488;2023-01-24T08:46:50;2.78;;;2.53;;
61413;SDS011;47279;52.426;10.488;2023-01-24T08:49:16;3.20;;;2.60;;
61413;SDS011;47279;52.426;10.488;2023-01-24T08:51:42;3.03;;;2.72;;
61413;SDS011;47279;52.426;10.488;2023-01-24T08:54:08;2.80;;;2.58;;
61413;SDS011;47279;52.426;10.488;2023-01-24T08:56:34;2.63;;;2.42;;
61413;SDS011;47279;52.426;10.488;2023-01-24T08:59:00;3.10;;;2.33;;
61413;SDS011;47279;52.426;10.488;2023-01-24T09:01:26;2.67;;;2.45;;
61413;SDS011;47279;52.426;10.488;2023-01-24T09:03:52;4.13;;;2.50;;
61413;SDS011;47279;52.426;10.488;2023-01-24T09:06:21;2.73;;;2.50;;
61413;SDS011;47279;52.426;10.488;2023-01-24T09:08:50;3.20;;;2.90;;
61413;SDS011;47279;52.426;10.488;2023-01-24T09:11:16;2.75;;;2.55;;
61413;SDS011;47279;52.426;10.488;2023-01-24T09:13:42;2.70;;;2.50;;
61413;SDS011;47279;52.426;10.488;2023-01-24T09:16:08;2.65;;;2.45;;
61413;SDS011;47279;52.426;10.488;2023-01-24T09:18:34;3.42;;;2.58;;
61413;SDS011;47279;52.426;10.488;2023-01-24T09:21:01;2.90;;;2.38;;
61413;SDS011;47279;52.426;10.488;2023-01-24T09:23:27;4.22;;;2.85;;
61413;SDS011;47279;52.426;10.488;2023-01-24T09:25:53;2.53;;;2.33;;
61413;SDS011;47279;52.426;10.488;2023-01-24T09:28:19;3.28;;;2.80;;
61413;SDS011;47279;52.426;10.488;2023-01-24T09:30:46;2.60;;;2.40;;
61413;SDS011;47279;52.426;10.488;2023-01-24T09:33:13;2.38;;;2.17;;
61413;SDS011;47279;52.426;10.488;2023-01-24T09:35:39;2.80;;;2.50;;
61413;SDS011;47279;52.426;10.488;2023-01-24T09:38:05;2.78;;;2.50;;
61413;SDS011;47279;52.426;10.488;2023-01-24T09:40:44;2.97;;;2.72;;
61413;SDS011;47279;52.426;10.488;2023-01-24T09:45:57;3.53;;;2.75;;
61413;SDS011;47279;52.426;10.488;2023-01-24T09:48:29;3.38;;;2.60;;
61413;SDS011;47279;52.426;10.488;2023-01-24T09:50:56;3.08;;;2.78;;
61413;SDS011;47279;52.426;10.488;2023-01-24T09:53:26;2.88;;;2.50;;
61413;SDS011;47279;52.426;10.488;2023-01-24T09:55:55;2.80;;;2.60;;
61413;SDS011;47279;52.426;10.488;2023-01-24T09:58:25;2.97;;;2.63;;
61413;SDS011;47279;52.426;10.488;2023-01-24T10:01:09;2.72;;;2.45;;
61413;SDS011;47279;52.426;10.488;2023-01-24T10:03:36;3.13;;;2.83;;
61413;SDS011;47279;52.426;10.488;2023-01-24T10:06:12;2.63;;;2.42;;
61413;SDS011;47279;52.426;10.488;2023-01-24T10:22:09;3.15;;;2.80;;
61413;SDS011;47279;52.426;10.488;2023-01-24T10:24:39;2.60;;;2.40;;
61413;SDS011;47279;52.426;10.488;2023-01-24T10:27:15;2.72;;;2.53;;
61413;SDS011;47279;52.426;10.488;2023-01-24T10:29:42;2.95;;;2.65;;
61413;SDS011;47279;52.426;10.488;2023-01-24T10:32:11;2.65;;;2.45;;
61413;SDS011;47279;52.426;10.488;2023-01-24T10:34:48;3.10;;;2.80;;
61413;SDS011;47279;52.426;10.488;2023-01-24T10:40:12;2.92;;;2.63;;
61413;SDS011;47279;52.426;10.488;2023-01-24T10:42:38;2.90;;;2.70;;
61413;SDS011;47279;52.426;10.488;2023-01-24T10:45:27;2.92;;;2.28;;
61413;SDS011;47279;52.426;10.488;2023-01-24T10:48:00;2.88;;;2.58;;
61413;SDS011;47279;52.426;10.488;2023-01-24T10:51:00;3.10;;;2.78;;
61413;SDS011;47279;52.426;10.488;2023-01-24T10:53:25;2.65;;;2.45;;
61413;SDS011;47279;52.426;10.488;2023-01-24T10:55:59;3.03;;;2.72;;
61413;SDS011;47279;52.426;10.488;2023-01-24T10:58:26;2.83;;;2.63;;
61413;SDS011;47279;52.426;10.488;2023-01-24T11:00:56;3.33;;;2.75;;
61413;SDS011;47279;52.426;10.488;2023-01-24T11:03:23;2.90;;;2.58;;
61413;SDS011;47279;52.426;10.488;2023-01-24T11:05:50;3.05;;;2.70;;
61413;SDS011;47279;52.426;10.488;2023-01-24T11:08:17;3.05;;;2.47;;
61413;SDS011;47279;52.426;10.488;2023-01-24T11:10:43;3.25;;;2.95;;
61413;SDS011;47279;52.426;10.488;2023-01-24T11:15:55;3.03;;;2.70;;
61413;SDS011;47279;52.426;10.488;2023-01-24T11:18:26;2.95;;;2.65;;
61413;SDS011;47279;52.426;10.488;2023-01-24T11:21:13;2.78;;;2.58;;
61413;SDS011;47279;52.426;10.488;2023-01-24T11:23:40;2.63;;;2.42;;
61413;SDS011;47279;52.426;10.488;2023-01-24T11:26:18;3.38;;;2.88;;
61413;SDS011;47279;52.426;10.488;2023-01-24T11:28:45;2.78;;;2.58;;
61413;SDS011;47279;52.426;10.488;2023-01-24T11:31:27;2.85;;;2.65;;
61413;SDS011;47279;52.426;10.488;2023-01-24T11:36:39;3.28;;;2.97;;
61413;SDS011;47279;52.426;10.488;2023-01-24T11:39:10;3.05;;;2.80;;
61413;SDS011;47279;52.426;10.488;2023-01-24T11:41:46;3.13;;;2.78;;
61413;SDS011;47279;52.426;10.488;2023-01-24T11:46:56;3.20;;;2.90;;
61413;SDS011;47279;52.426;10.488;2023-01-24T11:49:29;2.83;;;2.63;;
61413;SDS011;47279;52.426;10.488;2023-01-24T12:00:02;2.85;;;2.65;;
61413;SDS011;47279;52.426;10.488;2023-01-24T12:02:35;2.90;;;2.67;;
61413;SDS011;47279;52.426;10.488;2023-01-24T12:12:51;2.75;;;2.47;;
61413;SDS011;47279;52.426;10.488;2023-01-24T12:22:47;4.30;;;2.88;;
61413;SDS011;47279;52.426;10.488;2023-01-24T12:25:27;3.30;;;3.00;;
61413;SDS011;47279;52.426;10.488;2023-01-24T12:28:00;2.65;;;2.40;;
61413;SDS011;47279;52.426;10.488;2023-01-24T12:33:01;3.25;;;2.95;;
61413;SDS011;47279;52.426;10.488;2023-01-24T12:35:29;3.25;;;2.95;;
61413;SDS011;47279;52.426;10.488;2023-01-24T12:50:51;2.75;;;2.50;;
61413;SDS011;47279;52.426;10.488;2023-01-24T12:53:26;3.05;;;2.75;;
61413;SDS011;47279;52.426;10.488;2023-01-24T12:55:54;3.00;;;2.75;;
61413;SDS011;47279;52.426;10.488;2023-01-24T12:58:23;4.03;;;2.92;;
61413;SDS011;47279;52.426;10.488;2023-01-24T13:03:34;2.85;;;2.65;;
61413;SDS011;47279;52.426;10.488;2023-01-24T13:06:22;3.03;;;2.72;;
61413;SDS011;47279;52.426;10.488;2023-01-24T13:11:26;2.80;;;2.60;;
61413;SDS011;47279;52.426;10.488;2023-01-24T13:16:31;3.00;;;2.80;;
61413;SDS011;47279;52.426;10.488;2023-01-24T13:32:08;3.00;;;2.70;;
61413;SDS011;47279;52.426;10.488;2023-01-24T13:34:37;2.90;;;2.70;;
61413;SDS011;47279;52.426;10.488;2023-01-24T13:37:05;3.20;;;2.80;;
61413;SDS011;47279;52.426;10.488;2023-01-24T13:39:33;2.53;;;2.30;;
61413;SDS011;47279;52.426;10.488;2023-01-24T13:42:43;2.60;;;2.40;;
61413;SDS011;47279;52.426;10.488;2023-01-24T13:44:50;3.08;;;2.78;;
61413;SDS011;47279;52.426;10.488;2023-01-24T13:55:02;2.45;;;2.25;;
61413;SDS011;47279;52.426;10.488;2023-01-24T13:57:30;2.90;;;2.40;;
61413;SDS011;47279;52.426;10.488;2023-01-24T14:02:39;2.75;;;2.55;;
61413;SDS011;47279;52.426;10.488;2023-01-24T14:07:50;2.65;;;2.45;;
61413;SDS011;47279;52.426;10.488;2023-01-24T14:10:16;2.80;;;2.60;;
61413;SDS011;47279;52.426;10.488;2023-01-24T14:12:51;2.78;;;2.40;;
61413;SDS011;47279;52.426;10.488;2023-01-24T14:17:47;2.40;;;2.20;;
61413;SDS011;47279;52.426;10.488;2023-01-24T14:20:22;2.70;;;2.50;;
61413;SDS011;47279;52.426;10.488;2023-01-24T14:22:50;2.63;;;2.42;;
61413;SDS011;47279;52.426;10.488;2023-01-24T14:25:31;3.13;;;2.80;;
61413;SDS011;47279;52.426;10.488;2023-01-24T14:27:59;2.70;;;2.50;;
61413;SDS011;47279;52.426;10.488;2023-01-24T14:32:53;2.60;;;2.20;;
61413;SDS011;47279;52.426;10.488;2023-01-24T14:35:35;2.58;;;2.38;;
61413;SDS011;47279;52.426;10.488;2023-01-24T14:38:10;2.53;;;2.33;;
61413;SDS011;47279;52.426;10.488;2023-01-24T14:40:38;2.70;;;2.50;;
61413;SDS011;47279;52.426;10.488;2023-01-24T14:43:04;2.50;;;2.30;;
61413;SDS011;47279;52.426;10.488;2023-01-24T14:45:31;2.70;;;2.40;;
61413;SDS011;47279;52.426;10.488;2023-01-24T14:47:58;2.65;;;2.40;;
61413;SDS011;47279;52.426;10.488;2023-01-24T14:50:28;2.75;;;2.47;;
61413;SDS011;47279;52.426;10.488;2023-01-24T14:52:58;2.33;;;2.13;;
61413;SDS011;47279;52.426;10.488;2023-01-24T14:57:53;2.80;;;2.45;;
61413;SDS011;47279;52.426;10.488;2023-01-24T15:00:19;2.35;;;2.15;;
61413;SDS011;47279;52.426;10.488;2023-01-24T15:02:56;2.90;;;2.58;;
61413;SDS011;47279;52.426;10.488;2023-01-24T15:05:29;2.85;;;2.55;;
61413;SDS011;47279;52.426;10.488;2023-01-24T15:07:56;3.00;;;2.72;;
61413;SDS011;47279;52.426;10.488;2023-01-24T15:10:23;2.33;;;2.13;;
61413;SDS011;47279;52.426;10.488;2023-01-24T15:12:53;2.60;;;2.40;;
61413;SDS011;47279;52.426;10.488;2023-01-24T15:15:20;2.40;;;2.20;;
61413;SDS011;47279;52.426;10.488;2023-01-24T15:17:47;2.70;;;2.50;;
61413;SDS011;47279;52.426;10.488;2023-01-24T15:20:15;2.63;;;2.42;;
61413;SDS011;47279;52.426;10.488;2023-01-24T15:22:42;2.60;;;2.40;;
61413;SDS011;47279;52.426;10.488;2023-01-24T15:27:43;3.08;;;2.78;;
61413;SDS011;47279;52.426;10.488;2023-01-24T15:30:22;2.75;;;2.55;;
61413;SDS011;47279;52.426;10.488;2023-01-24T15:32:49;2.40;;;2.17;;
61413;SDS011;47279;52.426;10.488;2023-01-24T15:38:01;3.25;;;2.80;;
61413;SDS011;47279;52.426;10.488;2023-01-24T15:40:27;4.18;;;2.67;;
61413;SDS011;47279;52.426;10.488;2023-01-24T15:42:53;2.55;;;2.35;;
61413;SDS011;47279;52.426;10.488;2023-01-24T15:45:38;2.50;;;2.30;;
61413;SDS011;47279;52.426;10.488;2023-01-24T15:48:05;2.88;;;2.40;;
61413;SDS011;47279;52.426;10.488;2023-01-24T15:50:31;2.40;;;2.20;;
61413;SDS011;47279;52.426;10.488;2023-01-24T15:53:24;2.80;;;2.53;;
61413;SDS011;47279;52.426;10.488;2023-01-24T15:55:52;3.15;;;2.72;;
61413;SDS011;47279;52.426;10.488;2023-01-24T15:58:19;3.10;;;2.80;;
61413;SDS011;47279;52.426;10.488;2023-01-24T16:00:49;2.80;;;2.55;;
61413;SDS011;47279;52.426;10.488;2023-01-24T16:03:15;2.88;;;2.60;;
61413;SDS011;47279;52.426;10.488;2023-01-24T16:05:41;2.58;;;2.38;;
61413;SDS011;47279;52.426;10.488;2023-01-24T16:08:07;2.90;;;2.70;;
61413;SDS011;47279;52.426;10.488;2023-01-24T16:10:33;3.42;;;3.13;;
61413;SDS011;47279;52.426;10.488;2023-01-24T16:13:00;2.67;;;2.47;;
61413;SDS011;47279;52.426;10.488;2023-01-24T16:15:26;2.70;;;2.50;;
61413;SDS011;47279;52.426;10.488;2023-01-24T16:17:52;3.05;;;2.75;;
61413;SDS011;47279;52.426;10.488;2023-01-24T16:20:19;2.72;;;2.53;;
61413;SDS011;47279;52.426;10.488;2023-01-24T16:22:46;2.60;;;2.40;;
61413;SDS011;47279;52.426;10.488;2023-01-24T16:25:12;2.60;;;2.40;;
61413;SDS011;47279;52.426;10.488;2023-01-24T16:27:38;2.88;;;2.60;;
61413;SDS011;47279;52.426;10.488;2023-01-24T16:30:05;4.05;;;3.00;;
61413;SDS011;47279;52.426;10.488;2023-01-24T16:32:31;3.45;;;2.90;;
61413;SDS011;47279;52.426;10.488;2023-01-24T16:34:58;4.15;;;2.88;;
61413;SDS011;47279;52.426;10.488;2023-01-24T16:37:23;3.22;;;2.92;;
61413;SDS011;47279;52.426;10.488;2023-01-24T16:39:49;3.00;;;2.75;;
61413;SDS011;47279;52.426;10.488;2023-01-24T16:42:16;2.80;;;2.60;;
61413;SDS011;47279;52.426;10.488;2023-01-24T16:44:42;3.20;;;2.90;;
61413;SDS011;47279;52.426;10.488;2023-01-24T16:47:08;2.67;;;2.42;;